createdAt,value
2022-11-08T00:01:36.191Z,69.33
2022-11-08T00:04:10.657Z,70.37
2022-11-08T00:07:00.565Z,70.43
2022-11-08T00:09:52.214Z,69.59
2022-11-08T00:12:41.079Z,68.56
2022-11-08T00:15:14.339Z,68.52
2022-11-08T00:17:46.372Z,68.72
2022-11-08T00:20:19.164Z,68.04
2022-11-08T00:22:51.516Z,68.23
2022-11-08T00:25:26.205Z,68.88
2022-11-08T00:27:58.164Z,68.24
2022-11-08T00:30:31.083Z,67.84
2022-11-08T00:33:03.781Z,69.79
2022-11-08T00:35:36.654Z,68.87
2022-11-08T00:38:08.712Z,68.31
2022-11-08T00:40:42.943Z,67.55
2022-11-08T00:43:15.068Z,68.15
2022-11-08T00:45:47.960Z,69.09
2022-11-08T00:48:20.510Z,68.94
2022-11-08T00:50:53.724Z,67.58
2022-11-08T00:53:26.396Z,68.03
2022-11-08T00:56:05.306Z,67.99
2022-11-08T00:58:37.708Z,62.82
2022-11-08T01:01:14.355Z,61.46
2022-11-08T01:03:47.161Z,60.70
2022-11-08T01:06:22.592Z,60.58
2022-11-08T01:08:55.210Z,60.60
2022-11-08T01:11:29.893Z,60.57
2022-11-08T01:14:04.533Z,60.26
2022-11-08T01:16:38.366Z,60.22
2022-11-08T01:19:14.717Z,60.29
2022-11-08T01:21:47.241Z,60.47
2022-11-08T01:24:20.555Z,60.41
2022-11-08T01:26:54.550Z,60.41
2022-11-08T01:29:26.763Z,60.67
2022-11-08T01:31:59.813Z,60.09
2022-11-08T01:34:32.282Z,60.27
2022-11-08T01:37:04.636Z,60.11
2022-11-08T01:39:37.070Z,60.23
2022-11-08T01:42:11.279Z,60.28
2022-11-08T01:45:01.459Z,60.14
2022-11-08T01:47:33.470Z,59.93
2022-11-08T01:50:09.627Z,60.14
2022-11-08T01:52:45.211Z,60.87
2022-11-08T01:55:21.859Z,60.10
2022-11-08T01:57:59.993Z,60.25
2022-11-08T02:00:32.817Z,60.08
2022-11-08T02:03:07.781Z,60.76
2022-11-08T02:05:40.673Z,59.96
2022-11-08T02:08:20.174Z,61.02
2022-11-08T02:10:55.655Z,62.41
2022-11-08T02:13:31.821Z,62.66
2022-11-08T02:16:04.624Z,61.44
2022-11-08T02:18:36.855Z,60.73
2022-11-08T02:21:15.342Z,60.01
2022-11-08T02:23:51.489Z,60.74
2022-11-08T02:26:28.148Z,60.08
2022-11-08T02:29:00.323Z,59.70
2022-11-08T02:31:32.864Z,59.88
2022-11-08T02:34:05.111Z,61.17
2022-11-08T02:36:37.447Z,61.73
2022-11-08T02:39:11.611Z,62.54
2022-11-08T02:41:44.160Z,62.48
2022-11-08T02:44:16.631Z,60.91
2022-11-08T02:46:49.464Z,62.08
2022-11-08T02:49:21.519Z,61.33
2022-11-08T02:51:56.932Z,61.87
2022-11-08T02:54:30.762Z,61.37
2022-11-08T02:57:03.266Z,60.96
2022-11-08T02:59:35.986Z,61.69
2022-11-08T03:02:08.620Z,60.76
2022-11-08T03:04:42.451Z,60.56
2022-11-08T03:07:15.038Z,60.59
2022-11-08T03:09:49.688Z,60.42
2022-11-08T03:12:22.913Z,60.17
2022-11-08T03:14:55.596Z,60.52
2022-11-08T03:17:28.995Z,60.36
2022-11-08T03:20:01.632Z,59.95
2022-11-08T03:22:33.979Z,60.08
2022-11-08T03:25:07.880Z,60.58
2022-11-08T03:27:39.991Z,59.82
2022-11-08T03:30:13.017Z,60.69
2022-11-08T03:32:47.105Z,60.24
2022-11-08T03:35:19.514Z,60.04
2022-11-08T03:37:55.500Z,59.86
2022-11-08T03:40:29.959Z,59.96
2022-11-08T03:43:02.720Z,59.88
2022-11-08T03:45:35.111Z,59.84
2022-11-08T03:48:07.803Z,59.12
2022-11-08T03:50:40.217Z,59.38
2022-11-08T03:53:13.081Z,59.01
2022-11-08T03:55:48.411Z,59.51
2022-11-08T03:58:20.809Z,58.26
2022-11-08T04:00:53.869Z,57.96
2022-11-08T04:03:26.912Z,58.39
2022-11-08T04:05:59.371Z,57.93
2022-11-08T04:08:31.778Z,57.73
2022-11-08T04:11:19.042Z,58.04
2022-11-08T04:14:07.510Z,57.59
2022-11-08T04:16:40.453Z,57.32
2022-11-08T04:19:29.770Z,57.64
2022-11-08T04:22:02.978Z,57.39
2022-11-08T04:24:35.581Z,57.15
2022-11-08T04:27:09.833Z,57.83
2022-11-08T04:29:42.835Z,57.63
2022-11-08T04:32:15.130Z,56.81
2022-11-08T04:34:50.771Z,56.03
2022-11-08T04:37:23.307Z,56.50
2022-11-08T04:39:55.452Z,56.40
2022-11-08T04:42:30.213Z,55.65
2022-11-08T04:45:02.917Z,56.12
2022-11-08T04:47:39.424Z,56.06
2022-11-08T04:50:13.896Z,56.00
2022-11-08T04:52:47.172Z,56.00
2022-11-08T04:55:22.742Z,54.73
2022-11-08T04:58:02.015Z,55.24
2022-11-08T05:00:34.287Z,54.74
2022-11-08T05:03:07.204Z,56.02
2022-11-08T05:05:39.895Z,55.25
2022-11-08T05:08:14.577Z,55.54
2022-11-08T05:10:49.104Z,55.55
2022-11-08T05:13:24.660Z,55.81
2022-11-08T05:15:57.446Z,55.42
2022-11-08T05:18:30.267Z,54.42
2022-11-08T05:21:22.777Z,55.40
2022-11-08T05:23:55.413Z,53.84
2022-11-08T05:26:28.843Z,52.88
2022-11-08T05:29:02.782Z,53.61
2022-11-08T05:31:35.228Z,50.78
2022-11-08T05:34:08.893Z,51.60
2022-11-08T05:36:42.006Z,51.83
2022-11-08T05:39:14.763Z,52.20
2022-11-08T05:41:47.197Z,49.30
2022-11-08T05:44:31.273Z,50.54
2022-11-08T05:47:04.793Z,50.05
2022-11-08T05:49:42.295Z,51.33
2022-11-08T05:52:15.759Z,50.87
2022-11-08T05:54:49.082Z,52.39
2022-11-08T05:57:23.432Z,50.77
2022-11-08T06:00:09.171Z,47.28
2022-11-08T06:02:46.596Z,47.92
2022-11-08T06:05:19.107Z,49.57
2022-11-08T06:07:54.790Z,50.39
2022-11-08T06:10:46.008Z,48.83
2022-11-08T06:13:19.785Z,47.31
2022-11-08T06:15:57.297Z,48.68
2022-11-08T06:18:29.915Z,47.09
2022-11-08T06:21:03.724Z,45.32
2022-11-08T06:23:42.200Z,46.70
2022-11-08T06:26:17.588Z,47.96
2022-11-08T06:28:50.443Z,43.38
2022-11-08T06:31:25.603Z,41.15
2022-11-08T06:33:57.800Z,42.52
2022-11-08T06:36:34.834Z,43.53
2022-11-08T06:39:25.095Z,42.72
2022-11-08T06:41:57.668Z,41.04
2022-11-08T06:44:34.258Z,41.96
2022-11-08T06:47:17.395Z,41.17
2022-11-08T06:49:51.855Z,41.99
2022-11-08T06:52:26.615Z,42.04
2022-11-08T06:55:00.280Z,41.96
2022-11-08T06:57:32.379Z,42.61
2022-11-08T07:00:16.217Z,42.46
2022-11-08T07:02:57.901Z,42.00
2022-11-08T07:05:31.702Z,41.53
2022-11-08T07:08:12.603Z,42.40
2022-11-08T07:10:46.423Z,42.97
2022-11-08T07:13:21.613Z,42.82
2022-11-08T07:15:54.955Z,42.02
2022-11-08T07:18:31.839Z,40.79
2022-11-08T07:21:07.324Z,42.33
2022-11-08T07:23:40.226Z,43.26
2022-11-08T07:26:12.864Z,42.54
2022-11-08T07:28:46.532Z,40.80
2022-11-08T07:31:21.374Z,41.36
2022-11-08T07:34:09.560Z,42.54
2022-11-08T07:36:51.955Z,41.66
2022-11-08T07:39:55.022Z,42.27
2022-11-08T07:42:43.814Z,42.78
2022-11-08T07:45:28.929Z,42.81
2022-11-08T07:48:09.753Z,43.40
2022-11-08T07:50:48.699Z,42.95
2022-11-08T07:53:22.800Z,42.35
2022-11-08T07:55:56.802Z,42.01
2022-11-08T07:58:29.695Z,42.56
2022-11-08T08:01:05.745Z,42.70
2022-11-08T08:03:41.159Z,42.56
2022-11-08T08:06:15.558Z,43.33
2022-11-08T08:08:49.678Z,43.30
2022-11-08T08:11:23.401Z,43.26
2022-11-08T08:13:57.446Z,41.89
2022-11-08T08:16:33.031Z,43.14
2022-11-08T08:19:08.657Z,43.97
2022-11-08T08:21:43.599Z,43.34
2022-11-08T08:24:17.311Z,43.83
2022-11-08T08:26:54.817Z,43.34
2022-11-08T08:29:30.413Z,42.30
2022-11-08T08:32:07.135Z,42.77
2022-11-08T08:34:40.279Z,45.76
2022-11-08T08:37:18.909Z,44.01
2022-11-08T08:39:52.144Z,43.61
2022-11-08T08:42:24.223Z,42.51
2022-11-08T08:44:57.991Z,41.72
2022-11-08T08:47:32.592Z,41.38
2022-11-08T08:50:08.608Z,41.93
2022-11-08T08:52:43.483Z,41.62
2022-11-08T08:55:16.249Z,41.52
2022-11-08T08:57:53.391Z,41.82
2022-11-08T09:03:22.179Z,41.30
2022-11-08T09:05:54.552Z,40.82
2022-11-08T09:08:43.836Z,42.83
2022-11-08T09:11:30.790Z,43.20
2022-11-08T09:14:16.498Z,42.49
2022-11-08T09:16:51.187Z,42.44
2022-11-08T09:19:32.972Z,42.21
2022-11-08T09:22:48.185Z,40.96
2022-11-08T09:25:23.096Z,42.11
2022-11-08T09:28:18.214Z,42.55
2022-11-08T09:30:50.699Z,40.84
2022-11-08T09:36:06.903Z,41.14
2022-11-08T09:38:48.341Z,41.29
2022-11-08T09:42:19.382Z,41.79
2022-11-08T09:45:28.320Z,40.42
2022-11-08T09:48:05.430Z,40.14
2022-11-08T09:50:45.250Z,38.99
2022-11-08T09:53:22.408Z,38.45
2022-11-08T09:56:00.395Z,38.25
2022-11-08T09:58:40.961Z,39.16
2022-11-08T10:01:24.491Z,37.32
2022-11-08T10:04:07.288Z,38.02
2022-11-08T10:07:07.274Z,37.52
2022-11-08T10:09:57.140Z,39.06
2022-11-08T10:12:38.970Z,36.97
2022-11-08T10:15:25.301Z,36.26
2022-11-08T10:18:28.097Z,40.50
2022-11-08T10:21:09.536Z,39.67
2022-11-08T10:23:55.892Z,38.93
2022-11-08T10:29:40.648Z,38.74
2022-11-08T10:32:28.393Z,39.48
2022-11-08T10:35:52.019Z,41.81
2022-11-08T10:38:32.282Z,42.56
2022-11-08T10:41:20.497Z,42.56
2022-11-08T10:43:58.666Z,42.71
2022-11-08T10:46:48.735Z,43.44
2022-11-08T10:49:36.151Z,43.67
2022-11-08T10:52:28.560Z,44.98
2022-11-08T10:55:04.241Z,46.55
2022-11-08T10:57:46.646Z,47.81
2022-11-08T11:00:35.570Z,48.38
2022-11-08T11:03:32.105Z,49.27
2022-11-08T11:06:07.595Z,49.82
2022-11-08T11:08:55.764Z,49.77
2022-11-08T11:11:43.167Z,50.15
2022-11-08T11:14:22.534Z,50.82
2022-11-08T11:17:00.913Z,49.58
2022-11-08T11:19:36.797Z,48.37
2022-11-08T11:22:13.641Z,49.76
2022-11-08T11:24:56.363Z,50.72
2022-11-08T11:27:38.293Z,50.82
2022-11-08T11:30:32.461Z,51.00
2022-11-08T11:33:26.087Z,51.36
2022-11-08T11:36:02.768Z,51.19
2022-11-08T11:38:42.440Z,52.03
2022-11-08T11:41:21.500Z,50.59
2022-11-08T11:44:01.949Z,50.67
2022-11-08T11:46:42.792Z,51.53
2022-11-08T11:49:20.285Z,52.06
2022-11-08T11:51:57.300Z,51.62
2022-11-08T11:54:33.612Z,53.06
2022-11-08T11:57:20.614Z,53.51
2022-11-08T12:00:07.538Z,53.01
2022-11-08T12:03:08.488Z,53.58
2022-11-08T12:05:51.243Z,52.87
2022-11-08T12:08:35.046Z,52.97
2022-11-08T12:11:37.628Z,54.13
2022-11-08T12:14:27.512Z,54.56
2022-11-08T12:17:12.560Z,53.35
2022-11-08T12:19:56.416Z,53.53
2022-11-08T12:22:46.729Z,52.33
2022-11-08T12:25:27.556Z,52.25
2022-11-08T12:28:09.296Z,48.75
2022-11-08T12:30:54.358Z,50.31
2022-11-08T12:33:42.873Z,51.50
2022-11-08T12:36:36.514Z,53.36
2022-11-08T12:39:23.493Z,53.22
2022-11-08T12:42:06.905Z,53.76
2022-11-08T12:45:03.518Z,53.84
2022-11-08T12:47:43.420Z,54.55
2022-11-08T12:50:29.303Z,54.11
2022-11-08T12:53:23.362Z,54.48
2022-11-08T12:56:02.352Z,53.94
2022-11-08T12:58:41.623Z,54.64
2022-11-08T13:01:17.224Z,54.55
2022-11-08T13:04:28.979Z,54.40
2022-11-08T13:07:08.251Z,54.15
2022-11-08T13:09:56.271Z,54.00
2022-11-08T13:12:44.200Z,53.79
2022-11-08T13:15:22.862Z,53.89
2022-11-08T13:18:36.550Z,52.94
2022-11-08T13:21:39.676Z,53.01
2022-11-08T13:24:45.620Z,52.63
2022-11-08T13:27:37.812Z,51.32
2022-11-08T13:30:47.062Z,53.71
2022-11-08T13:33:30.571Z,54.40
2022-11-08T13:36:17.545Z,50.97
2022-11-08T13:39:06.364Z,48.97
2022-11-08T13:42:06.469Z,49.32
2022-11-08T13:45:01.600Z,48.81
2022-11-08T13:48:03.757Z,46.87
2022-11-08T13:51:43.191Z,47.25
2022-11-08T13:54:56.429Z,47.27
2022-11-08T13:58:00.133Z,46.67
2022-11-08T14:00:49.599Z,46.40
2022-11-08T14:03:41.011Z,46.94
2022-11-08T14:06:21.759Z,44.01
2022-11-08T14:09:07.053Z,46.31
2022-11-08T14:11:57.660Z,47.13
2022-11-08T14:14:54.872Z,44.95
2022-11-08T14:17:43.831Z,45.69
2022-11-08T14:20:27.553Z,46.07
2022-11-08T14:23:05.331Z,45.49
2022-11-08T14:25:40.086Z,45.54
2022-11-08T14:28:28.515Z,46.08
2022-11-08T14:31:09.895Z,46.69
2022-11-08T14:33:46.686Z,46.01
2022-11-08T14:36:22.112Z,46.32
2022-11-08T14:39:06.043Z,45.91
2022-11-08T14:41:39.395Z,46.61
2022-11-08T14:44:27.761Z,46.95
2022-11-08T14:47:09.587Z,45.88
2022-11-08T14:49:42.569Z,47.51
2022-11-08T14:52:18.795Z,46.68
